MOTOCROSSTIME  - MXGP OF CZECH REPUBLIC RESULTS

MXGP

Pos Nr Rider Nat. Fed. Bike Time laps Diff. First Diff. Prev. Bestlaptime in lap Speed
1 222 Cairoli, Antonio ITA FMI KTM 34:45.495 19 0:00.000 0:00.000 1:45.942 7 53.8
2 25 Desalle, Clement BEL FMB Kawasaki 34:50.025 19 0:04.530 0:04.530 1:47.323 3 53.2
3 84 Herlings, Jeffrey NED KNMV KTM 34:54.484 19 0:08.989 0:04.459 1:47.135 6 53.2
4 243 Gajser, Tim SLO AMZS Honda 34:56.341 19 0:10.846 0:01.857 1:47.644 12 53
5 21 Paulin, Gautier FRA MCM Husqvarna 34:57.075 19 0:11.580 0:00.734 1:47.144 6 53.2
6 461 Febvre, Romain FRA FFM Yamaha 35:01.049 19 0:15.554 0:03.974 1:47.603 15 53
7 89 Van Horebeek, Jeremy BEL FMB Yamaha 35:17.436 19 0:31.941 0:16.387 1:47.335 5 53.1
8 27 Jasikonis, Arminas LTU LMSF Suzuki 35:23.688 19 0:38.193 0:06.252 1:48.095 7 52.8
9 777 Bobryshev, Evgeny RUS MFR Honda 35:29.639 19 0:44.144 0:05.951 1:47.536 6 53
10 4 Tonus, Arnaud SUI FMS Yamaha 35:30.331 19 0:44.836 0:00.692 1:48.370 8 52.6
11 259 Coldenhoff, Glenn NED KNMV KTM 35:32.356 19 0:46.861 0:02.025 1:48.871 12 52.4
12 99 Anstie, Max GBR ACU Husqvarna 35:39.607 19 0:54.112 0:07.251 1:49.338 10 52.2
13 12 Nagl, Maximilian GER DMSB Husqvarna 35:52.356 19 1:06.861 0:12.749 1:48.358 9 52.6
14 7 Leok, Tanel EST EMF Husqvarna 36:04.873 19 1:19.378 0:12.517 1:49.515 5 52.1
15 22 Strijbos, Kevin BEL FMB Suzuki 36:09.259 19 1:23.764 0:04.386 1:48.851 9 52.4
16 77 Lupino, Alessandro ITA FMI Honda 36:13.229 19 1:27.734 0:03.970 1:48.766 11 52.4
17 9 de Dycker, Ken BEL FMB Honda 36:17.867 19 1:32.372 0:04.638 1:50.434 5 51.7
18 17 Butron, Jose ESP RFME KTM 36:22.530 19 1:37.035 0:04.663 1:50.498 11 51.6
19 141 Desprey, Maxime FRA FFM Kawasaki 36:42.230 19 1:56.735 0:19.700 1:51.409 14 51.2
20 71 Graulus, Damon BEL FMB Honda 34:48.750 18 1 lap 1 lap 1:51.890 5 51
21 909 Neurauter, Lukas AUT OeAMTC KTM 34:52.087 18 1 lap 0:03.337 1:51.319 5 51.2
22 232 Michek, Martin CZE ACCR KTM 35:05.566 18 1 lap 0:13.479 1:52.917 7 50.5
23 119 Houghton, Ryan GBR ACU Yamaha 35:14.336 18 1 lap 0:08.770 1:53.060 9 50.5
24 212 Dewulf, Jeffrey BEL FMB KTM 35:27.059 18 1 lap 0:12.723 1:52.264 6 50.8
25 878 Pezzuto, Stefano ITA FMI Yamaha 35:56.476 18 1 lap 0:29.417 1:53.372 5 50.3
26 49 Irt, Jernej SLO AMZS Husqvarna 36:05.067 18 1 lap 0:08.591 1:53.658 5 50.2
27 831 Wysocki, Tomasz POL PZM KTM 36:11.460 18 1 lap 0:06.393 1:55.288 5 49.5
28 93 Bengtsson, Jonathan SWE SVEMO KTM 36:12.411 18 1 lap 0:00.951 1:52.620 5 50.6
29 73 Irt, Peter SLO AMZS Yamaha 36:17.619 18 1 lap 0:05.208 1:53.994 4 50
30 311 Bartos, Petr CZE ACCR KTM 36:29.371 18 1 lap 0:11.752 1:54.892 16 49.6
31 227 Finek, Martin CZE ACCR KTM 35:33.686 17 2 laps 1 lap 1:53.839 3 50.1
32 191 Romancik, Jaromir CZE ACCR KTM 22:22.124 11 8 laps 6 laps 1:52.844 5 50.5
33 911 Tixier, Jordi FRA FFM Kawasaki 17:43.804 9 10 laps 2 laps 1:49.362 5 52.2
34 999 Goncalves, Rui POR FMP Husqvarna 18:31.761 9 10 laps 0:47.957 1:53.585 3 50.2
35 47 Boulard, Bryan BEL FFM Yamaha 16:50.088 8 11 laps 1 lap 1:53.232 5 50.4
36 337 Weschta, Rudolf CZE ACCR Suzuki 4:37.305 2 17 laps 6 laps 1:57.628 2 48.5
 

 

MX2

Pos Nr Rider Nat. Fed. Bike Time laps Diff. First Diff. Prev. Bestlaptime in lap Speed
1 41 Jonass, Pauls LAT LAMSF KTM 35:26.231 19 0:00.000 0:00.000 1:48.671 3 52.5
2 91 Seewer, Jeremy SUI FMS Suzuki 35:27.994 19 0:01.763 0:01.763 1:48.586 3 52.5
3 6 Paturel, Benoit FRA FFM Yamaha 35:28.933 19 0:02.702 0:00.939 1:48.589 3 52.5
4 189 Bogers, Brian NED KNMV KTM 35:39.629 19 0:13.398 0:10.696 1:49.541 4 52.1
5 33 Lieber, Julien BEL FMB KTM 35:46.309 19 0:20.078 0:06.680 1:48.917 7 52.4
6 61 Prado Garcia, Jorge ESP RFME KTM 35:50.201 19 0:23.970 0:03.892 1:49.877 3 51.9
7 57 Sanayei, Darian USA AMA Kawasaki 35:52.539 19 0:26.308 0:02.338 1:49.974 7 51.9
8 96 Lawrence, Hunter AUS MA Suzuki 35:54.121 19 0:27.890 0:01.582 1:49.306 10 52.2
9 14 Beaton, Jed AUS MA Honda 36:00.495 19 0:34.264 0:06.374 1:49.305 4 52.2
10 64 Covington, Thomas USA MUL Husqvarna 36:09.684 19 0:43.453 0:09.189 1:49.326 15 52.2
11 56 Weltin, Marshal USA AMA Kawasaki 36:20.448 19 0:54.217 0:10.764 1:51.456 7 51.2
12 426 Mewse, Conrad GBR ACU Husqvarna 36:23.084 19 0:56.853 0:02.636 1:50.992 4 51.4
13 19 Olsen, Thomas Kjer DEN DMU Husqvarna 36:28.628 19 1:02.397 0:05.544 1:50.055 10 51.8
14 747 Cervellin, Michele ITA FMI Honda 36:40.071 19 1:13.840 0:11.443 1:51.656 8 51.1
15 44 Lesiardo, Morgan ITA FMI Kawasaki 36:41.647 19 1:15.416 0:01.576 1:51.731 14 51.1
16 172 Van doninck, Brent BEL FMB Yamaha 36:42.534 19 1:16.303 0:00.887 1:51.140 16 51.3
17 919 Watson, Ben GBR ACU KTM 36:44.455 19 1:18.224 0:01.921 1:51.156 11 51.3
18 81 Hsu, Brian GER MAMS Husqvarna 36:47.278 19 1:21.047 0:02.823 1:50.603 10 51.6
19 118 Rubini, Stephen FRA FFM Kawasaki 36:48.245 19 1:22.014 0:00.967 1:51.210 7 51.3
20 98 Vaessen, Bas NED KNMV Suzuki 36:48.855 19 1:22.624 0:00.610 1:51.380 8 51.2
21 297 Gole, Anton SWE SVEMO TM 36:53.707 19 1:27.476 0:04.852 1:52.378 10 50.8
22 76 Fernandez, Ruben ESP RFME Kawasaki 37:14.032 19 1:47.801 0:20.325 1:52.387 6 50.8
23 95 De Waal, Micha-Boy NED KNMV Honda 37:19.367 19 1:53.136 0:05.335 1:52.462 9 50.7
24 39 Van De Moosdijk, Roan NED KNMV Yamaha 37:50.197 19 2:23.966 0:30.830 1:52.411 9 50.7
25 83 Renkens, Nathan BEL FMB KTM 35:37.379 18 1 lap 1 lap 1:54.590 18 49.8
26 116 Olsson, Oskar SWE SVEMO Yamaha 36:17.363 18 1 lap 0:39.984 1:55.198 5 49.5
27 67 Klingsheim, Magne NOR NMF Kawasaki 36:27.354 18 1 lap 0:09.991 1:54.993 4 49.6
28 881 Drdaj, Dušan CZE ACCR Yamaha 36:27.894 18 1 lap 0:00.540 1:54.897 18 49.6
29 313 Polak, Petr CZE ACCR KTM 36:31.131 18 1 lap 0:03.237 1:55.790 5 49.3
30 102 Sikyna, Richard SVK SMF KTM 37:04.252 18 1 lap 0:33.121 1:54.826 2 49.7
31 10 Vlaanderen, Calvin NED KNMV KTM 28:39.735 15 4 laps 3 laps 1:49.194 3 52.2
32 29 Jacobi, Henry GER DMSB Husqvarna 26:40.253 13 6 laps 2 laps 1:51.482 3 51.2
33 338 Herbreteau, David FRA FFM Kawasaki 21:53.692 11 8 laps 2 laps 1:52.644 10 50.6
34 43 Bres, Natanael FRA FFM KTM 23:01.646 11 8 laps 1:07.954 1:54.628 4 49.8
35 166 Sabulis, Karlis LAT LAMSF Yamaha 12:12.525 6 13 laps 5 laps 1:54.313 4 49.9
36 223 Tropepe, Giuseppe ITA FMI Husqvarna 12:13.225 6 13 laps 0:00.700 1:52.387 6 50.8
37 199 Zaragoza, Jorge ESP RFME Yamaha 6:40.170 3 16 laps 3 laps 1:58.143 2 48.3
38 66 Larranaga Olano, Iker ESP RFME Husqvarna 7:15.877 3 16 laps 0:35.707 1:54.605 2 49.8

 

WMX

Pos Nr Rider Nat. Fed. Bike Time laps Diff. First Diff. Prev. Bestlaptime in lap Speed
1 274 Verstappen, Amandine BEL FMB KTM 24:50.505 12 0:00.000 0:00.000 1:58.401 1 48.2
2 151 Duncan, Courtney NZL MNZ Yamaha 25:02.290 12 0:11.785 0:11.785 1:59.191 1 47.9
3 85 Van De Ven, Nancy NED KNMV Yamaha 25:09.299 12 0:18.794 0:07.009 1:58.748 5 48
4 964 van Wordragen, Nicky NED KNMV Yamaha 25:16.525 12 0:26.020 0:07.226 2:00.473 4 47.3
5 114 Lancelot, Livia FRA FFM Kawasaki 25:18.320 12 0:27.815 0:01.795 1:59.258 4 47.8
6 8 Fontanesi, Kiara ITA FMI Yamaha 25:34.081 12 0:43.576 0:15.761 1:58.045 4 48.3
7 188 van der Vlist, Shana NED KNMV KTM 25:44.192 12 0:53.687 0:10.111 2:04.213 9 45.9
8 555 Dahl, Emelie SWE SVEMO Yamaha 25:54.879 12 1:04.374 0:10.687 2:04.080 5 46
9 2 Karlsson, Sandra SWE SVEMO Kawasaki 25:57.402 12 1:06.897 0:02.523 2:05.022 5 45.6
10 9 Germond, Virginie SUI FMS Yamaha 26:01.388 12 1:10.883 0:03.986 2:03.733 2 46.1
11 18 Brown, Madison AUS MA Yamaha 26:02.508 12 1:12.003 0:01.120 2:05.985 4 45.3
12 84 Milesevic, Emma AUS MA Yamaha 26:06.157 12 1:15.652 0:03.649 2:06.179 3 45.2
13 111 Borchers, Anne GER DMSB Suzuki 26:17.022 12 1:26.517 0:10.865 2:06.155 4 45.2
14 423 Papenmeier, Larissa GER DMSB Suzuki 26:18.122 12 1:27.617 0:01.100 2:04.164 7 45.9
15 116 Nocera, Francesca ITA FMI Suzuki 26:26.271 12 1:35.766 0:08.149 2:06.556 4 45.1
16 52 Charroux, Justine FRA FFM Yamaha 26:30.550 12 1:40.045 0:04.279 2:07.434 4 44.8
17 325 Andersen, Sara DEN DMU Yamaha 26:41.678 12 1:51.173 0:11.128 2:05.529 1 45.4
18 290 Denis, Mathilde FRA FFM Yamaha 26:53.504 12 2:02.999 0:11.826 2:08.127 2 44.5
19 40 Reitze, Alicia GER DMSB Yamaha 25:06.297 11 1 lap 1 lap 2:09.885 7 43.9
20 10 Vitkova, Kristyna CZE ACCR Yamaha 25:19.037 11 1 lap 0:12.740 2:12.043 2 43.2
21 55 Irmgartz, Kim GER DMSB Suzuki 25:32.129 11 1 lap 0:13.092 2:11.439 7 43.4
22 974 Lehmann, Janina GER DMSB Suzuki 25:38.050 11 1 lap 0:05.921 2:12.215 7 43.1
23 143 Stoutjesdijk, Stephanie NED KNMV Husqvarna 25:40.560 11 1 lap 0:02.510 2:14.384 4 42.4
24 612 Selebo, Mathea NOR NMF Yamaha 25:41.407 11 1 lap 0:00.847 2:08.314 2 44.4
25 137 Guerber, Lisa FRA FFM Yamaha 25:48.759 11 1 lap 0:07.352 2:13.509 7 42.7
26 25 Fisher, Stacey GBR ACU KTM 25:49.377 11 1 lap 0:00.618 2:13.625 11 42.7
27 969 Hoppe, Fiona GER DMSB KTM 25:53.761 11 1 lap 0:04.384 2:15.545 5 42.1
28 699 Kapsamer , Elena AUT OeAMTC KTM 26:09.508 11 1 lap 0:15.747 2:14.997 9 42.2
29 238 Garbowska, Wiktoria POL PZM KTM 24:52.001 10 2 laps 1 lap 2:22.587 2 40
30 112 Keil, Michaela GER DMSB Kawasaki 24:54.074 10 2 laps 0:02.073 2:22.572 4 40
31 127 Schrenk, Julia AUT OeAMTC Yamaha 25:51.101 10 2 laps 0:57.027 2:20.882 2 40.5
32 193 Braam, Kimberley NED KNMV Kawasaki 5:18.720 2 10 laps 8 laps 2:18.713 2 41.1

 

EMX65

Pos Nr Rider Nat. Fed. Bike Time laps Diff. First Diff. Prev. Bestlaptime in lap Speed
1 515 Sorensen, Mads Fredsoe DEN DMU KTM 18:49.295 8 0:00.000 0:00.000 2:14.944 3 42.3
2 414 Mikula, Julius CZE ACCR KTM 18:54.307 8 0:05.012 0:05.012 2:16.194 1 41.9
3 411 Knuiman, Damian NED KNMV Husqvarna 18:55.996 8 0:06.701 0:01.689 2:16.276 3 41.8
4 618 Chwalik, Maksymilian POL PZM KTM 19:07.590 8 0:18.295 0:11.594 2:16.520 5 41.8
5 419 Coenen, Sacha BEL FMB KTM 19:15.495 8 0:26.200 0:07.905 2:17.879 4 41.4
6 247 Gaspari, Alessandro ITA FMI KTM 19:20.385 8 0:31.090 0:04.890 2:18.634 8 41.1
7 323 Peklaj, Jaka SLO AMZS KTM 19:21.277 8 0:31.982 0:00.892 2:18.231 4 41.3
8 305 Gallego Ramos, Antonio ESP RFME KTM 19:27.488 8 0:38.193 0:06.211 2:19.056 2 41
9 716 Zanocz, Noel HUN MAMS Husqvarna 19:29.964 8 0:40.669 0:02.476 2:18.578 2 41.2
10 432 Van Erp, Ivano NED KNMV KTM 19:38.407 8 0:49.112 0:08.443 2:16.614 8 41.7
11 774 Makhnou, Aleh BLR BFMS KTM 19:49.895 8 1:00.600 0:11.488 2:21.003 2 40.4
12 197 Sterpin, Matija CRO HMS KTM 19:51.263 8 1:01.968 0:01.368 2:20.538 6 40.6
13 489 Pruijmboom, Giovanni NED KNMV KTM 19:52.347 8 1:03.052 0:01.084 2:20.982 8 40.4
14 396 Zanchi, Ferruccio ITA FMI Husqvarna 19:52.566 8 1:03.271 0:00.219 2:15.932 6 42
15 747 Rybakov, Semen RUS MFR KTM 19:57.725 8 1:08.430 0:05.159 2:21.968 3 40.2
16 551 Skorepa, Matej CZE ACCR KTM 19:59.246 8 1:09.951 0:01.521 2:22.444 2 40
17 779 Reisulis, Karlis Alberts LAT LAMSF KTM 20:06.314 8 1:17.019 0:07.068 2:19.084 2 41
18 306 Reichl, Lyonel SUI FMS KTM 20:07.815 8 1:18.520 0:01.501 2:22.462 7 40
19 248 Perez Martin, Alejandro ESP RFME Husqvarna 20:09.195 8 1:19.900 0:01.380 2:21.315 2 40.4
20 711 Maslovs, Kirils LAT LAMSF Husqvarna 20:13.245 8 1:23.950 0:04.050 2:23.025 7 39.9
21 501 ten Kate, Mirco NED KNMV KTM 20:16.030 8 1:26.735 0:02.785 2:22.914 7 39.9
22 475 Mesters, Bradley NED KNMV Husqvarna 20:25.832 8 1:36.537 0:09.802 2:23.814 5 39.7
23 394 Busatto, Patrick ITA FMI KTM 20:27.985 8 1:38.690 0:02.153 2:23.001 8 39.9
24 612 Parn, Joosep EST EMF KTM 20:33.888 8 1:44.593 0:05.903 2:23.946 8 39.6
25 428 Skovbjerg, Nicolai DEN DMU KTM 20:35.127 8 1:45.832 0:01.239 2:23.724 8 39.7
26 454 Hindersson, Kasimir FIN SML KTM 20:40.613 8 1:51.318 0:05.486 2:24.399 5 39.5
27 788 Sukhotin, Serafim RUS MFR Husqvarna 20:50.703 8 2:01.408 0:10.090 2:24.325 3 39.5
28 695 Khabirov, Ilya RUS MFR KTM 20:51.131 8 2:01.836 0:00.428 2:26.380 8 39
29 9 Kunic, Luka CRO HMS Kawasaki 20:55.057 8 2:05.762 0:03.926 2:28.168 5 38.5
30 88 Beres, Szabolcs HUN MAMS KTM 20:55.869 8 2:06.574 0:00.812 2:27.778 4 38.6
31 217 Valin, Mathis FRA FFM Husqvarna 20:56.739 8 2:07.444 0:00.870 2:24.475 3 39.5
32 710 Paat, Richard EST EMF KTM 21:06.299 8 2:17.004 0:09.560 2:27.339 4 38.7
33 493 Coenen, Lucas BEL FMB KTM 21:09.457 8 2:20.162 0:03.158 2:27.044 3 38.8
34 319 Ernecker, Maximilian AUT OeAMTC Husqvarna 21:22.388 8 2:33.093 0:12.931 2:29.846 5 38.1
35 721 Cauniss, Eriks LAT LAMSF KTM 18:57.953 7 1 lap 1 lap 2:31.419 6 37.7
36 388 Benitez Marull, David ESP RFME KTM 19:19.448 7 1 lap 0:21.495 2:25.827 1 39.1
37 209 Garcia, Francisco ESP RFME Husqvarna 10:33.716 4 4 laps 3 laps 2:21.626 3 40.3
 

Source : MXGP

Loading...